Time;durP1;ratioP1;P1;durP2;ratioP2;P2;SDS_P1;SDS_P2;PMS_P1;PMS_P2;Temp;Humidity;BMP_temperature;BMP_pressure;BME280_temperature;BME280_humidity;BME280_pressure;Samples;Min_cycle;Max_cycle;Signal;HPM_P1;HPM_P2
2022/05/02 00:02:08;;;;;;;2.55;1.40;;;;;;;;;;4972782;28;20039;-71
2022/05/02 00:04:34;;;;;;;2.13;1.10;;;;;;;;;;4972585;28;20106;-71
2022/05/02 00:07:00;;;;;;;3.45;1.40;;;;;;;;;;4972887;28;20046;-72
2022/05/02 00:09:26;;;;;;;2.13;1.40;;;;;;;;;;4973061;28;20053;-71
2022/05/02 00:11:52;;;;;;;3.22;1.40;;;;;;;;;;4972892;28;20364;-72
2022/05/02 00:14:18;;;;;;;2.35;1.30;;;;;;;;;;4972688;28;20133;-72
2022/05/02 00:16:44;;;;;;;5.60;1.70;;;;;;;;;;4972352;28;20089;-72
2022/05/02 00:19:11;;;;;;;4.07;1.52;;;;;;;;;;4971633;28;20055;-71
2022/05/02 00:21:37;;;;;;;3.38;1.38;;;;;;;;;;4972387;28;20104;-71
2022/05/02 00:24:03;;;;;;;1.80;1.00;;;;;;;;;;4972503;28;20046;-72
2022/05/02 00:26:29;;;;;;;3.50;1.42;;;;;;;;;;4972268;28;20187;-71
2022/05/02 00:28:55;;;;;;;1.92;1.30;;;;;;;;;;4971908;28;20046;-71
2022/05/02 00:31:21;;;;;;;3.10;1.17;;;;;;;;;;4971214;28;20105;-72
2022/05/02 00:33:47;;;;;;;2.47;1.23;;;;;;;;;;4972645;28;20054;-71
2022/05/02 00:36:15;;;;;;;1.50;1.10;;;;;;;;;;4970811;28;20077;-71
2022/05/02 00:38:41;;;;;;;2.60;1.50;;;;;;;;;;4972217;28;20441;-72
2022/05/02 00:41:07;;;;;;;2.08;1.23;;;;;;;;;;4972131;28;20046;-71
2022/05/02 00:43:33;;;;;;;2.15;1.38;;;;;;;;;;4971941;28;20078;-72
2022/05/02 00:45:59;;;;;;;1.63;1.10;;;;;;;;;;4971627;28;20047;-72
2022/05/02 00:48:26;;;;;;;3.13;1.80;;;;;;;;;;4972086;28;20057;-71
2022/05/02 00:50:52;;;;;;;1.92;1.27;;;;;;;;;;4970674;28;20047;-71
2022/05/02 00:53:22;;;;;;;5.25;1.33;;;;;;;;;;4971281;28;20051;-71
2022/05/02 00:55:49;;;;;;;2.53;1.30;;;;;;;;;;4971856;28;20468;-71
2022/05/02 00:58:15;;;;;;;2.45;1.50;;;;;;;;;;4971678;28;20047;-71
2022/05/02 01:00:42;;;;;;;2.03;1.45;;;;;;;;;;4970997;28;20047;-71
2022/05/02 01:03:09;;;;;;;3.55;1.55;;;;;;;;;;4970965;28;20522;-71
2022/05/02 01:08:25;;;;;;;3.13;1.40;;;;;;;;;;4971651;28;20137;-71
2022/05/02 01:10:51;;;;;;;2.20;1.35;;;;;;;;;;4972096;28;20137;-71
2022/05/02 01:13:33;;;;;;;2.80;1.45;;;;;;;;;;4971206;28;20058;-71
2022/05/02 01:16:00;;;;;;;2.80;1.10;;;;;;;;;;4971687;28;20134;-71
2022/05/02 01:18:26;;;;;;;4.53;1.40;;;;;;;;;;4971499;28;20066;-72
2022/05/02 01:20:52;;;;;;;6.22;1.30;;;;;;;;;;4971242;28;20054;-70
2022/05/02 01:23:18;;;;;;;2.88;1.20;;;;;;;;;;4971315;28;20047;-70
2022/05/02 01:25:44;;;;;;;3.20;1.27;;;;;;;;;;4971134;28;20043;-71
2022/05/02 01:28:11;;;;;;;3.75;1.40;;;;;;;;;;4971259;28;20427;-71
2022/05/02 01:30:37;;;;;;;4.18;1.60;;;;;;;;;;4971530;28;20057;-71
2022/05/02 01:33:03;;;;;;;2.60;1.35;;;;;;;;;;4971037;28;20074;-71
2022/05/02 01:35:29;;;;;;;4.93;2.03;;;;;;;;;;4971158;28;20093;-71
2022/05/02 01:37:55;;;;;;;1.92;1.02;;;;;;;;;;4969902;28;20057;-71
2022/05/02 01:40:21;;;;;;;2.88;1.35;;;;;;;;;;4971319;28;20043;-71
2022/05/02 01:42:47;;;;;;;3.83;1.40;;;;;;;;;;4971413;28;20133;-71
2022/05/02 01:45:13;;;;;;;2.70;1.10;;;;;;;;;;4971196;28;20039;-71
2022/05/02 01:47:39;;;;;;;3.08;1.30;;;;;;;;;;4969911;28;20054;-71
2022/05/02 01:50:05;;;;;;;3.25;1.10;;;;;;;;;;4970900;28;20042;-71
2022/05/02 01:52:31;;;;;;;5.10;1.30;;;;;;;;;;4970736;28;20054;-71
2022/05/02 01:54:57;;;;;;;2.85;1.38;;;;;;;;;;4969884;28;20051;-71
2022/05/02 01:57:23;;;;;;;1.45;0.98;;;;;;;;;;4969583;28;20082;-71
2022/05/02 01:59:49;;;;;;;4.63;1.23;;;;;;;;;;4970261;28;20078;-71
2022/05/02 02:02:15;;;;;;;4.47;1.00;;;;;;;;;;4970548;28;20129;-71
2022/05/02 02:07:26;;;;;;;1.38;0.93;;;;;;;;;;4970627;28;20065;-71
2022/05/02 02:09:52;;;;;;;3.83;1.30;;;;;;;;;;4970617;28;20500;-71
2022/05/02 02:12:18;;;;;;;3.10;1.58;;;;;;;;;;4970329;28;20047;-71
2022/05/02 02:14:44;;;;;;;2.10;1.20;;;;;;;;;;4970152;28;20051;-71
2022/05/02 02:17:10;;;;;;;4.13;1.30;;;;;;;;;;4969689;28;20109;-71
2022/05/02 02:19:36;;;;;;;2.75;1.20;;;;;;;;;;4970272;28;20109;-72
2022/05/02 02:22:18;;;;;;;3.72;1.15;;;;;;;;;;4970304;28;20488;-71
2022/05/02 02:24:47;;;;;;;2.35;0.90;;;;;;;;;;4969734;28;20049;-72
2022/05/02 02:27:13;;;;;;;3.97;1.70;;;;;;;;;;4970201;28;20047;-72
2022/05/02 02:29:39;;;;;;;2.70;1.15;;;;;;;;;;4970046;28;20051;-72
2022/05/02 02:32:06;;;;;;;3.30;1.30;;;;;;;;;;4970215;28;20583;-71
2022/05/02 02:34:32;;;;;;;3.30;1.02;;;;;;;;;;4968849;28;20054;-71
2022/05/02 02:36:58;;;;;;;2.08;1.27;;;;;;;;;;4970349;28;20511;-71
2022/05/02 02:39:24;;;;;;;2.85;1.38;;;;;;;;;;4969482;28;20142;-71
2022/05/02 02:41:50;;;;;;;3.72;1.20;;;;;;;;;;4970086;28;20047;-71
2022/05/02 02:44:16;;;;;;;3.00;1.23;;;;;;;;;;4969198;28;20566;-71
2022/05/02 02:46:42;;;;;;;2.60;1.50;;;;;;;;;;4969745;28;20520;-71
2022/05/02 02:49:08;;;;;;;4.53;1.20;;;;;;;;;;4969484;28;20588;-71
2022/05/02 02:51:34;;;;;;;1.50;0.90;;;;;;;;;;4969967;28;20058;-70
2022/05/02 02:54:00;;;;;;;2.60;1.13;;;;;;;;;;4969856;28;20046;-71
2022/05/02 02:56:26;;;;;;;3.38;0.95;;;;;;;;;;4969823;28;20051;-71
2022/05/02 02:58:52;;;;;;;2.10;1.20;;;;;;;;;;4969344;28;20104;-71
2022/05/02 03:01:18;;;;;;;1.20;0.90;;;;;;;;;;4969948;28;20046;-71
2022/05/02 03:03:44;;;;;;;1.80;1.10;;;;;;;;;;4969932;28;20078;-71
2022/05/02 03:06:10;;;;;;;1.60;1.17;;;;;;;;;;4969788;28;20062;-71
2022/05/02 03:08:39;;;;;;;2.17;1.02;;;;;;;;;;4969766;28;20138;-71
2022/05/02 03:11:06;;;;;;;3.28;1.50;;;;;;;;;;4968108;28;20508;-71
2022/05/02 03:13:34;;;;;;;3.15;1.30;;;;;;;;;;4969841;28;20142;-71
2022/05/02 03:16:00;;;;;;;1.45;1.00;;;;;;;;;;4969974;28;20150;-71
2022/05/02 03:18:27;;;;;;;3.15;1.10;;;;;;;;;;4969656;28;20062;-71
2022/05/02 03:20:53;;;;;;;1.38;1.05;;;;;;;;;;4969225;28;20158;-71
2022/05/02 03:23:19;;;;;;;3.13;1.40;;;;;;;;;;4969667;28;20047;-71
2022/05/02 03:25:45;;;;;;;4.13;1.20;;;;;;;;;;4969788;28;20050;-72
2022/05/02 03:28:11;;;;;;;4.10;1.35;;;;;;;;;;4971201;28;20046;-71
2022/05/02 03:30:37;;;;;;;3.80;1.35;;;;;;;;;;4973556;28;20061;-71
2022/05/02 03:33:03;;;;;;;3.67;1.13;;;;;;;;;;4971749;28;20047;-71
2022/05/02 03:35:30;;;;;;;3.55;1.30;;;;;;;;;;4973230;28;20503;-71
2022/05/02 03:37:56;;;;;;;2.03;1.10;;;;;;;;;;4973262;28;20112;-71
2022/05/02 03:40:23;;;;;;;2.08;1.27;;;;;;;;;;4973274;28;20047;-71
2022/05/02 03:42:49;;;;;;;3.47;1.60;;;;;;;;;;4972390;28;20375;-71
2022/05/02 03:45:15;;;;;;;1.98;1.05;;;;;;;;;;4972671;28;20101;-71
2022/05/02 03:47:41;;;;;;;3.83;1.30;;;;;;;;;;4971605;28;20416;-71
2022/05/02 03:50:07;;;;;;;3.10;1.48;;;;;;;;;;4973154;28;20504;-71
2022/05/02 03:52:33;;;;;;;3.63;1.10;;;;;;;;;;4971935;28;20385;-71
2022/05/02 03:54:59;;;;;;;2.47;1.20;;;;;;;;;;4956330;28;20412;-71
2022/05/02 03:57:25;;;;;;;2.95;1.08;;;;;;;;;;4972585;28;20043;-71
2022/05/02 03:59:51;;;;;;;3.50;1.30;;;;;;;;;;4972897;28;20057;-71
2022/05/02 04:02:17;;;;;;;1.83;1.10;;;;;;;;;;4973068;28;20058;-71
2022/05/02 04:04:43;;;;;;;2.47;1.10;;;;;;;;;;4973080;28;20148;-71
2022/05/02 04:07:09;;;;;;;3.15;1.38;;;;;;;;;;4972914;28;20496;-71
2022/05/02 04:09:35;;;;;;;1.58;0.90;;;;;;;;;;4973082;28;20496;-71
2022/05/02 04:12:01;;;;;;;3.53;1.10;;;;;;;;;;4972303;28;20046;-71
2022/05/02 04:14:27;;;;;;;3.40;1.15;;;;;;;;;;4971671;28;20404;-71
2022/05/02 04:16:53;;;;;;;2.83;1.50;;;;;;;;;;4972716;28;20059;-71
2022/05/02 04:19:19;;;;;;;3.78;1.20;;;;;;;;;;4972850;28;20058;-71
2022/05/02 04:21:46;;;;;;;1.95;1.38;;;;;;;;;;4972316;28;20046;-71
2022/05/02 04:24:12;;;;;;;2.60;1.30;;;;;;;;;;4972600;28;20415;-71
2022/05/02 04:26:38;;;;;;;3.25;1.27;;;;;;;;;;4972219;28;20061;-71
2022/05/02 04:29:04;;;;;;;3.70;1.58;;;;;;;;;;4972348;28;20451;-72
2022/05/02 04:31:30;;;;;;;1.90;1.15;;;;;;;;;;4971942;28;20049;-71
2022/05/02 04:33:56;;;;;;;2.90;1.20;;;;;;;;;;4972321;28;20043;-71
2022/05/02 04:36:23;;;;;;;1.95;1.05;;;;;;;;;;4972649;28;20470;-72
2022/05/02 04:38:49;;;;;;;2.38;1.13;;;;;;;;;;4970634;28;20076;-71
2022/05/02 04:41:16;;;;;;;1.70;1.10;;;;;;;;;;4970344;28;20511;-71
2022/05/02 04:43:42;;;;;;;2.58;1.10;;;;;;;;;;4972101;28;20455;-72
2022/05/02 04:46:09;;;;;;;1.10;0.70;;;;;;;;;;4971772;28;20055;-71
2022/05/02 04:48:35;;;;;;;2.15;1.10;;;;;;;;;;4972281;28;20059;-71
2022/05/02 04:51:01;;;;;;;3.50;1.25;;;;;;;;;;4972200;28;20097;-72
2022/05/02 04:53:28;;;;;;;1.30;1.00;;;;;;;;;;4972136;28;20500;-72
2022/05/02 04:55:54;;;;;;;2.80;1.13;;;;;;;;;;4971999;28;20047;-72
2022/05/02 04:58:20;;;;;;;2.40;1.00;;;;;;;;;;4971994;28;20411;-72
2022/05/02 05:00:47;;;;;;;1.42;1.15;;;;;;;;;;4972117;28;20042;-71
2022/05/02 05:03:13;;;;;;;4.82;1.20;;;;;;;;;;4972158;28;20432;-72
2022/05/02 05:05:39;;;;;;;7.13;1.63;;;;;;;;;;4971664;28;20043;-71
2022/05/02 05:08:05;;;;;;;2.63;1.20;;;;;;;;;;4970553;28;20055;-71
2022/05/02 05:10:36;;;;;;;6.97;1.35;;;;;;;;;;4972145;28;20042;-71
2022/05/02 05:13:03;;;;;;;10.30;1.23;;;;;;;;;;4966414;28;20043;-71
2022/05/02 05:18:36;;;;;;;4.57;1.20;;;;;;;;;;4952487;28;20469;-72
2022/05/02 05:21:05;;;;;;;2.28;1.10;;;;;;;;;;4952179;28;20501;-72
2022/05/02 05:23:48;;;;;;;5.13;1.92;;;;;;;;;;4952413;28;20070;-72
2022/05/02 05:26:14;;;;;;;4.35;1.30;;;;;;;;;;4950631;29;20066;-72
2022/05/02 05:28:59;;;;;;;3.10;1.05;;;;;;;;;;4951907;28;20058;-72
2022/05/02 05:31:25;;;;;;;5.13;1.55;;;;;;;;;;4952399;28;20059;-72
2022/05/02 05:33:55;;;;;;;2.10;1.10;;;;;;;;;;4952130;28;20047;-72
2022/05/02 05:36:24;;;;;;;3.25;1.10;;;;;;;;;;4952030;28;20043;-72
2022/05/02 05:39:04;;;;;;;4.05;1.17;;;;;;;;;;4952594;28;20043;-72
2022/05/02 05:41:36;;;;;;;2.30;1.00;;;;;;;;;;4951568;28;20046;-71
2022/05/02 05:44:23;;;;;;;4.15;1.30;;;;;;;;;;4952012;28;20508;-72
2022/05/02 05:46:54;;;;;;;2.78;1.10;;;;;;;;;;4950140;28;20054;-72
2022/05/02 05:49:20;;;;;;;2.47;1.23;;;;;;;;;;4952354;28;20125;-71
2022/05/02 05:51:51;;;;;;;4.65;1.85;;;;;;;;;;4951655;28;20524;-72
2022/05/02 05:54:24;;;;;;;2.65;1.20;;;;;;;;;;4950234;29;20543;-72
2022/05/02 05:56:50;;;;;;;3.30;1.20;;;;;;;;;;4951529;28;20043;-72
2022/05/02 05:59:28;;;;;;;4.28;1.30;;;;;;;;;;4950834;29;20055;-72
2022/05/02 06:01:55;;;;;;;3.47;1.27;;;;;;;;;;4951366;28;20138;-71
2022/05/02 06:04:22;;;;;;;2.50;1.23;;;;;;;;;;4951561;28;20043;-72
2022/05/02 06:06:48;;;;;;;2.58;1.70;;;;;;;;;;4949945;29;20516;-72
2022/05/02 06:09:15;;;;;;;3.38;1.30;;;;;;;;;;4949780;29;20050;-72
2022/05/02 06:11:45;;;;;;;2.95;1.00;;;;;;;;;;4951591;28;20066;-72
2022/05/02 06:14:13;;;;;;;1.45;1.08;;;;;;;;;;4950979;28;20082;-71
2022/05/02 06:19:27;;;;;;;2.42;1.30;;;;;;;;;;4951138;28;20055;-72
2022/05/02 06:21:53;;;;;;;;;;;;;;;;;;4951641;28;20043;-73
2022/05/02 06:24:19;;;;;;;4.47;1.48;;;;;;;;;;4965712;28;20545;-71
2022/05/02 06:26:46;;;;;;;2.90;1.10;;;;;;;;;;4949978;29;20054;-72
2022/05/02 06:29:13;;;;;;;4.32;1.10;;;;;;;;;;4950138;29;20051;-71
2022/05/02 06:31:48;;;;;;;5.03;1.13;;;;;;;;;;4951196;28;20046;-71
2022/05/02 06:34:15;;;;;;;4.35;1.30;;;;;;;;;;4950273;28;20047;-72
2022/05/02 06:36:42;;;;;;;5.75;1.23;;;;;;;;;;4951294;28;20445;-72
2022/05/02 06:39:14;;;;;;;3.50;1.00;;;;;;;;;;4950788;28;20091;-72
2022/05/02 06:41:41;;;;;;;4.38;1.20;;;;;;;;;;4951155;28;20054;-72
2022/05/02 06:44:16;;;;;;;2.85;1.00;;;;;;;;;;4950953;28;20052;-72
2022/05/02 06:46:52;;;;;;;4.05;1.27;;;;;;;;;;4950208;28;20058;-71
2022/05/02 06:49:18;;;;;;;4.10;1.13;;;;;;;;;;4950739;28;20078;-72
2022/05/02 06:51:49;;;;;;;6.35;1.30;;;;;;;;;;4950950;28;20110;-72
2022/05/02 06:54:15;;;;;;;10.40;2.17;;;;;;;;;;4949515;29;20505;-72
2022/05/02 06:56:46;;;;;;;2.83;1.00;;;;;;;;;;4949183;28;20051;-73
2022/05/02 06:59:27;;;;;;;8.00;1.60;;;;;;;;;;4951000;28;20109;-71
2022/05/02 07:02:13;;;;;;;5.78;1.13;;;;;;;;;;4950426;28;20130;-70
2022/05/02 07:04:52;;;;;;;2.10;1.00;;;;;;;;;;4938712;29;20055;-71
2022/05/02 07:07:35;;;;;;;2.47;0.98;;;;;;;;;;4950758;28;20044;-71
2022/05/02 07:10:08;;;;;;;3.45;1.00;;;;;;;;;;4950926;28;20078;-70
2022/05/02 07:12:59;;;;;;;3.25;1.05;;;;;;;;;;4949554;29;20073;-71
2022/05/02 07:15:44;;;;;;;1.33;1.00;;;;;;;;;;4950374;28;20058;-70
2022/05/02 07:18:31;;;;;;;2.28;1.00;;;;;;;;;;4950485;28;20055;-71
2022/05/02 07:21:00;;;;;;;4.13;0.88;;;;;;;;;;4950203;28;20050;-69
2022/05/02 07:23:45;;;;;;;3.67;0.88;;;;;;;;;;4950462;28;20051;-69
2022/05/02 07:26:14;;;;;;;1.75;0.80;;;;;;;;;;4949979;28;20102;-70
2022/05/02 07:28:49;;;;;;;4.03;0.83;;;;;;;;;;4950451;28;20048;-72
2022/05/02 07:31:20;;;;;;;3.03;1.00;;;;;;;;;;4950223;28;20385;-70
2022/05/02 07:33:48;;;;;;;1.70;0.75;;;;;;;;;;4950702;28;20047;-71
2022/05/02 07:38:52;;;;;;;2.58;1.00;;;;;;;;;;4616660;23;20214;-68
2022/05/02 07:41:25;;;;;;;1.38;0.77;;;;;;;;;;4949779;28;20051;-68
2022/05/02 07:43:53;;;;;;;1.85;0.70;;;;;;;;;;4949958;28;20047;-68
2022/05/02 07:48:57;;;;;;;2.63;0.80;;;;;;;;;;5102830;23;20036;-69
2022/05/02 07:51:24;;;;;;;1.77;0.80;;;;;;;;;;4949229;29;20390;-69
2022/05/02 07:53:51;;;;;;;2.83;1.20;;;;;;;;;;4950134;28;20126;-70
2022/05/02 07:56:17;;;;;;;1.85;0.90;;;;;;;;;;4950348;28;20074;-68
2022/05/02 07:58:44;;;;;;;2.88;0.93;;;;;;;;;;4950024;28;20048;-69
2022/05/02 08:01:11;;;;;;;2.05;0.90;;;;;;;;;;4948827;28;20047;-69
2022/05/02 08:03:37;;;;;;;1.63;0.80;;;;;;;;;;4950076;28;20054;-69
2022/05/02 08:06:11;;;;;;;4.50;1.00;;;;;;;;;;4950614;28;20055;-68
2022/05/02 08:08:47;;;;;;;2.55;1.15;;;;;;;;;;4950073;28;20411;-70
2022/05/02 08:11:39;;;;;;;5.25;1.45;;;;;;;;;;4950472;28;20055;-69
2022/05/02 08:14:11;;;;;;;2.45;1.17;;;;;;;;;;4950171;28;20055;-68
2022/05/02 08:16:40;;;;;;;4.20;1.42;;;;;;;;;;4952877;28;20086;-69
2022/05/02 08:19:10;;;;;;;3.53;1.33;;;;;;;;;;4952544;29;20138;-69
2022/05/02 08:21:45;;;;;;;3.20;1.70;;;;;;;;;;4953466;28;20138;-70
2022/05/02 08:27:16;;;;;;;3.88;1.30;;;;;;;;;;4952472;29;20058;-70
2022/05/02 08:29:52;;;;;;;2.55;1.25;;;;;;;;;;4952976;28;20047;-69
2022/05/02 08:32:18;;;;;;;2.67;1.27;;;;;;;;;;4953097;28;20417;-69
2022/05/02 08:34:45;;;;;;;3.25;1.30;;;;;;;;;;4953669;28;20049;-69
2022/05/02 08:37:34;;;;;;;2.33;1.00;;;;;;;;;;4952577;28;20134;-69
2022/05/02 08:40:00;;;;;;;2.42;1.33;;;;;;;;;;4953364;28;20051;-69
2022/05/02 08:42:41;;;;;;;4.43;1.55;;;;;;;;;;4952169;28;20409;-68
2022/05/02 08:45:24;;;;;;;2.45;1.00;;;;;;;;;;4953202;28;20044;-69
2022/05/02 08:48:09;;;;;;;4.00;1.13;;;;;;;;;;4957331;28;20047;-68
2022/05/02 08:50:54;;;;;;;5.75;1.40;;;;;;;;;;4972221;28;20134;-70
2022/05/02 08:53:38;;;;;;;2.40;1.15;;;;;;;;;;4972577;28;20416;-69
2022/05/02 08:56:23;;;;;;;2.83;1.15;;;;;;;;;;4971645;28;20051;-70
2022/05/02 08:59:04;;;;;;;2.40;1.23;;;;;;;;;;4972461;28;20047;-69
2022/05/02 09:01:39;;;;;;;3.50;1.20;;;;;;;;;;4972162;28;20120;-69
2022/05/02 09:04:29;;;;;;;2.85;1.38;;;;;;;;;;4970455;28;20510;-70
2022/05/02 09:07:10;;;;;;;2.33;1.23;;;;;;;;;;4972508;28;20570;-70
2022/05/02 09:09:52;;;;;;;2.25;1.20;;;;;;;;;;4972275;28;20059;-69
2022/05/02 09:12:36;;;;;;;2.30;1.10;;;;;;;;;;4972837;28;20125;-69
2022/05/02 09:15:02;;;;;;;3.33;1.30;;;;;;;;;;4972374;28;20043;-69
2022/05/02 09:17:28;;;;;;;3.97;1.42;;;;;;;;;;4972824;28;20053;-69
2022/05/02 09:20:13;;;;;;;2.35;1.17;;;;;;;;;;4972364;28;20481;-70
2022/05/02 09:22:39;;;;;;;3.17;1.10;;;;;;;;;;4971332;28;20125;-69
2022/05/02 09:25:07;;;;;;;3.15;1.20;;;;;;;;;;4971358;28;20485;-69
2022/05/02 09:27:36;;;;;;;3.43;1.67;;;;;;;;;;4971663;28;20042;-69
2022/05/02 09:30:12;;;;;;;2.80;1.25;;;;;;;;;;4971560;28;20051;-69
2022/05/02 09:32:53;;;;;;;1.60;1.10;;;;;;;;;;4971522;28;20046;-70
2022/05/02 09:35:29;;;;;;;3.28;1.30;;;;;;;;;;4971556;28;20042;-69
2022/05/02 09:37:59;;;;;;;2.95;1.40;;;;;;;;;;4967962;28;20128;-70
2022/05/02 09:40:37;;;;;;;2.75;1.15;;;;;;;;;;4957021;28;20046;-68
2022/05/02 09:43:10;;;;;;;2.50;1.20;;;;;;;;;;4950866;28;20043;-69
2022/05/02 09:51:55;;;;;;;3.20;1.33;;;;;;;;;;4970885;28;20098;-68
2022/05/02 09:57:35;;;;;;;2.30;1.00;;;;;;;;;;4971023;28;20190;-68
2022/05/02 10:02:49;;;;;;;2.45;1.20;;;;;;;;;;4970106;28;20082;-67
2022/05/02 10:05:22;;;;;;;3.05;1.30;;;;;;;;;;4970607;28;20074;-67
2022/05/02 10:08:01;;;;;;;3.00;1.50;;;;;;;;;;4970355;28;20057;-71
2022/05/02 10:10:35;;;;;;;1.80;1.00;;;;;;;;;;4951833;28;20051;-67
2022/05/02 10:13:19;;;;;;;2.50;1.20;;;;;;;;;;4951593;28;20043;-68
2022/05/02 10:16:06;;;;;;;2.28;1.30;;;;;;;;;;4951030;28;20051;-68
2022/05/02 10:18:56;;;;;;;2.88;1.35;;;;;;;;;;4975562;28;20062;-68
2022/05/02 10:21:23;;;;;;;2.22;1.10;;;;;;;;;;4964178;28;20097;-69
2022/05/02 10:24:07;;;;;;;1.63;1.05;;;;;;;;;;4970595;28;20050;-70
2022/05/02 10:26:55;;;;;;;1.75;1.15;;;;;;;;;;4970223;28;20105;-68
2022/05/02 10:29:42;;;;;;;2.92;1.45;;;;;;;;;;4970030;28;20058;-69
2022/05/02 10:32:27;;;;;;;1.58;1.10;;;;;;;;;;4970626;28;20043;-70
2022/05/02 10:34:55;;;;;;;2.35;1.20;;;;;;;;;;4970604;28;20452;-68
2022/05/02 10:37:26;;;;;;;3.58;1.23;;;;;;;;;;4969726;28;20086;-69
2022/05/02 10:39:58;;;;;;;1.80;1.13;;;;;;;;;;4970489;28;20053;-69
2022/05/02 10:42:25;;;;;;;2.58;1.20;;;;;;;;;;4970187;28;20057;-69
2022/05/02 10:45:06;;;;;;;1.92;0.90;;;;;;;;;;4952077;28;20054;-69
2022/05/02 10:47:44;;;;;;;1.60;1.00;;;;;;;;;;4950981;28;20047;-69
2022/05/02 10:50:26;;;;;;;2.10;1.17;;;;;;;;;;4956654;28;20078;-69
2022/05/02 10:53:07;;;;;;;3.13;1.40;;;;;;;;;;4962123;28;20054;-69
2022/05/02 10:55:34;;;;;;;3.75;1.38;;;;;;;;;;4952931;28;20505;-69
2022/05/02 10:58:09;;;;;;;1.42;0.98;;;;;;;;;;4951173;29;20043;-69
2022/05/02 11:00:37;;;;;;;1.95;1.05;;;;;;;;;;4950736;28;20657;-68
2022/05/02 11:03:06;;;;;;;1.30;1.00;;;;;;;;;;4968307;28;20467;-70
2022/05/02 11:05:38;;;;;;;2.80;1.30;;;;;;;;;;4969175;28;20062;-70
2022/05/02 11:08:11;;;;;;;2.60;1.40;;;;;;;;;;4969848;28;20157;-69
2022/05/02 11:10:47;;;;;;;1.73;1.02;;;;;;;;;;4969982;28;20047;-69
2022/05/02 11:13:18;;;;;;;3.30;1.45;;;;;;;;;;4958167;28;20047;-69
2022/05/02 11:15:47;;;;;;;2.70;1.25;;;;;;;;;;4950892;28;20138;-69
2022/05/02 11:20:41;;;;;;;;;;;;;;;;;;4955420;28;20050;-70
2022/05/02 11:21:08;;;;;;;4.50;1.67;;;;;;;;;;4969923;28;20016;-70
2022/05/02 11:23:38;;;;;;;1.98;1.20;;;;;;;;;;4969556;28;20050;-70
2022/05/02 11:26:07;;;;;;;2.47;1.20;;;;;;;;;;4967836;28;20055;-70
2022/05/02 11:28:39;;;;;;;2.08;1.33;;;;;;;;;;4951998;28;20047;-69
2022/05/02 11:31:17;;;;;;;1.90;1.27;;;;;;;;;;4969610;28;20050;-69
2022/05/02 11:34:02;;;;;;;6.55;1.27;;;;;;;;;;4970026;28;20627;-70
2022/05/02 11:36:32;;;;;;;2.38;1.13;;;;;;;;;;4968823;28;20083;-68
2022/05/02 11:38:58;;;;;;;4.35;1.80;;;;;;;;;;4970016;28;20133;-71
2022/05/02 11:41:24;;;;;;;6.63;1.80;;;;;;;;;;4969735;28;20445;-71
2022/05/02 11:43:57;;;;;;;5.47;1.52;;;;;;;;;;4969744;28;20488;-71
2022/05/02 11:46:25;;;;;;;4.38;1.10;;;;;;;;;;4969406;28;20085;-72
2022/05/02 11:48:57;;;;;;;5.18;1.45;;;;;;;;;;4969396;28;20062;-71
2022/05/02 11:51:42;;;;;;;6.63;1.42;;;;;;;;;;4972700;28;20902;-71
2022/05/02 11:54:13;;;;;;;4.20;1.52;;;;;;;;;;4970940;28;20058;-71
2022/05/02 11:56:41;;;;;;;3.75;1.05;;;;;;;;;;4973023;28;20050;-71
2022/05/02 11:59:12;;;;;;;3.40;1.30;;;;;;;;;;4973252;28;20051;-72
2022/05/02 12:01:41;;;;;;;2.97;1.30;;;;;;;;;;4973398;28;20084;-71
2022/05/02 12:04:07;;;;;;;2.20;1.30;;;;;;;;;;4973134;28;20042;-72
2022/05/02 12:06:48;;;;;;;3.17;1.30;;;;;;;;;;4972285;28;20054;-72
2022/05/02 12:09:24;;;;;;;3.10;1.20;;;;;;;;;;4971864;28;20046;-71
2022/05/02 12:11:58;;;;;;;3.33;1.40;;;;;;;;;;4973202;28;20046;-71
2022/05/02 12:14:25;;;;;;;2.42;1.30;;;;;;;;;;4973049;28;20552;-72
2022/05/02 12:17:05;;;;;;;1.92;1.25;;;;;;;;;;4972621;28;20105;-71
2022/05/02 12:19:31;;;;;;;2.45;1.25;;;;;;;;;;4971948;28;20397;-72
2022/05/02 12:21:58;;;;;;;3.45;1.30;;;;;;;;;;4972555;28;20130;-72
2022/05/02 12:24:29;;;;;;;2.20;1.27;;;;;;;;;;4972653;28;20113;-71
2022/05/02 12:26:56;;;;;;;3.40;1.30;;;;;;;;;;4973742;28;20050;-71
2022/05/02 12:31:59;;;;;;;2.03;1.40;;;;;;;;;;4406424;23;20424;-71
2022/05/02 12:34:37;;;;;;;2.38;1.20;;;;;;;;;;4953063;28;20059;-71
2022/05/02 12:37:13;;;;;;;2.87;1.40;;;;;;;;;;4951528;29;20047;-71
2022/05/02 12:39:51;;;;;;;1.88;1.10;;;;;;;;;;4953416;28;20043;-71
2022/05/02 12:42:19;;;;;;;3.55;1.35;;;;;;;;;;4953244;28;20122;-71
2022/05/02 12:44:47;;;;;;;2.50;1.30;;;;;;;;;;4953192;28;20048;-71
2022/05/02 12:47:21;;;;;;;1.55;1.10;;;;;;;;;;4953004;28;20055;-71
2022/05/02 12:50:04;;;;;;;2.85;1.50;;;;;;;;;;4953498;28;20051;-71
2022/05/02 12:52:31;;;;;;;2.22;1.40;;;;;;;;;;4953046;28;20047;-71
2022/05/02 12:54:58;;;;;;;3.17;1.40;;;;;;;;;;4953605;28;20043;-71
2022/05/02 13:00:33;;;;;;;3.50;1.35;;;;;;;;;;4952159;28;20437;-72
2022/05/02 13:03:00;;;;;;;3.40;1.10;;;;;;;;;;4952151;28;20533;-72
2022/05/02 13:05:29;;;;;;;1.77;1.10;;;;;;;;;;4953383;28;20226;-71
2022/05/02 13:07:56;;;;;;;3.77;1.33;;;;;;;;;;4953310;28;20055;-71
2022/05/02 13:10:23;;;;;;;2.30;1.23;;;;;;;;;;4952933;28;20394;-73
2022/05/02 13:13:05;;;;;;;2.28;1.20;;;;;;;;;;4953552;28;20055;-74
2022/05/02 13:15:33;;;;;;;1.58;0.95;;;;;;;;;;4952684;28;20062;-72
2022/05/02 13:18:09;;;;;;;2.20;1.33;;;;;;;;;;4953215;28;20472;-71
2022/05/02 13:20:35;;;;;;;2.80;1.05;;;;;;;;;;4953544;28;20134;-73
2022/05/02 13:23:02;;;;;;;2.20;1.23;;;;;;;;;;4952662;28;20190;-71
2022/05/02 13:25:46;;;;;;;2.10;1.30;;;;;;;;;;4952447;28;20405;-72
2022/05/02 13:28:16;;;;;;;2.28;1.23;;;;;;;;;;4933634;29;20118;-69
2022/05/02 13:30:43;;;;;;;2.47;1.15;;;;;;;;;;4953858;28;20043;-70
2022/05/02 13:33:11;;;;;;;1.67;0.90;;;;;;;;;;4972324;28;20082;-71
2022/05/02 13:35:39;;;;;;;1.88;1.30;;;;;;;;;;4971832;28;20452;-72
2022/05/02 13:38:09;;;;;;;2.30;1.10;;;;;;;;;;4972051;28;20053;-74
2022/05/02 13:40:49;;;;;;;1.95;1.05;;;;;;;;;;4961115;28;20089;-72
2022/05/02 13:43:36;;;;;;;2.28;1.30;;;;;;;;;;4964988;28;20125;-71
2022/05/02 13:46:02;;;;;;;2.08;1.30;;;;;;;;;;4952662;28;20109;-71
2022/05/02 13:48:31;;;;;;;1.98;1.10;;;;;;;;;;4951872;28;20047;-74
2022/05/02 13:51:16;;;;;;;2.35;1.00;;;;;;;;;;4951824;28;20086;-73
2022/05/02 13:54:07;;;;;;;1.25;0.80;;;;;;;;;;4952518;28;20394;-73
2022/05/02 13:56:56;;;;;;;1.98;1.30;;;;;;;;;;4971951;28;20443;-72
2022/05/02 13:59:29;;;;;;;1.50;1.20;;;;;;;;;;4951793;28;20098;-73
2022/05/02 14:01:59;;;;;;;2.22;1.00;;;;;;;;;;4951723;28;20058;-70
2022/05/02 14:09:55;;;;;;;1.80;1.13;;;;;;;;;;4951973;28;20094;-70
2022/05/02 14:12:24;;;;;;;1.98;1.35;;;;;;;;;;4971884;28;20051;-72
2022/05/02 14:15:09;;;;;;;1.70;1.00;;;;;;;;;;4958830;28;20046;-71
2022/05/02 14:17:43;;;;;;;2.03;1.20;;;;;;;;;;4970216;28;20051;-71
2022/05/02 14:20:09;;;;;;;2.15;1.02;;;;;;;;;;4970722;28;20054;-69
2022/05/02 14:22:38;;;;;;;1.52;1.10;;;;;;;;;;4970253;28;20137;-70
2022/05/02 14:25:04;;;;;;;;;;;;;;;;;;4969699;28;20142;-67
2022/05/02 14:27:30;;;;;;;2.63;1.20;;;;;;;;;;4970270;28;20009;-68
2022/05/02 14:30:01;;;;;;;1.65;1.15;;;;;;;;;;4970441;28;20046;-69
2022/05/02 14:32:40;;;;;;;1.83;1.10;;;;;;;;;;4969857;28;20070;-68
2022/05/02 14:35:07;;;;;;;2.08;1.10;;;;;;;;;;4969929;28;20051;-68
2022/05/02 14:37:35;;;;;;;2.20;1.20;;;;;;;;;;4970277;28;20145;-68
2022/05/02 14:40:02;;;;;;;1.60;1.00;;;;;;;;;;4970369;28;20051;-69
2022/05/02 14:42:31;;;;;;;1.98;0.95;;;;;;;;;;4969439;28;20113;-70
2022/05/02 14:44:58;;;;;;;1.75;0.98;;;;;;;;;;4970290;28;20565;-69
2022/05/02 14:47:25;;;;;;;1.17;0.98;;;;;;;;;;4970470;28;20062;-69
2022/05/02 14:49:55;;;;;;;1.45;1.10;;;;;;;;;;4970806;28;20043;-69
2022/05/02 14:52:22;;;;;;;1.60;0.90;;;;;;;;;;4970589;28;20086;-70
2022/05/02 14:54:51;;;;;;;2.50;1.20;;;;;;;;;;4970150;28;20057;-69
2022/05/02 14:57:22;;;;;;;2.07;1.33;;;;;;;;;;4970431;28;20043;-69
2022/05/02 14:59:50;;;;;;;1.77;1.10;;;;;;;;;;4970518;28;20053;-68
2022/05/02 15:02:18;;;;;;;1.80;1.10;;;;;;;;;;4970276;28;20043;-68
2022/05/02 15:04:44;;;;;;;1.80;1.17;;;;;;;;;;4969545;28;20492;-69
2022/05/02 15:07:12;;;;;;;2.17;1.05;;;;;;;;;;4967985;28;20049;-68
2022/05/02 15:12:51;;;;;;;1.83;1.10;;;;;;;;;;4966561;28;20050;-69
2022/05/02 15:15:34;;;;;;;2.72;1.10;;;;;;;;;;4968170;28;20035;-69
2022/05/02 15:18:16;;;;;;;1.70;1.15;;;;;;;;;;4967612;28;20051;-69
2022/05/02 15:20:45;;;;;;;1.85;1.00;;;;;;;;;;4967916;28;20047;-69
2022/05/02 15:23:14;;;;;;;1.70;1.00;;;;;;;;;;4968105;28;20097;-68
2022/05/02 15:25:50;;;;;;;1.27;0.85;;;;;;;;;;4962347;28;20114;-73
2022/05/02 15:37:20;;;;;;;1.05;0.93;;;;;;;;;;4971366;28;20051;-68
2022/05/02 15:39:46;;;;;;;1.42;0.82;;;;;;;;;;4973306;28;20042;-69
2022/05/02 15:42:15;;;;;;;1.80;0.90;;;;;;;;;;4973320;28;20089;-69
2022/05/02 15:44:43;;;;;;;1.52;0.95;;;;;;;;;;4973686;28;20057;-70
2022/05/02 15:47:14;;;;;;;2.03;1.10;;;;;;;;;;4973735;28;20262;-70
2022/05/02 15:49:45;;;;;;;1.05;0.90;;;;;;;;;;4973112;28;20051;-70
2022/05/02 15:52:12;;;;;;;2.33;1.00;;;;;;;;;;4972966;28;20413;-71
2022/05/02 15:54:44;;;;;;;3.25;1.23;;;;;;;;;;4964677;28;20047;-68
2022/05/02 15:57:17;;;;;;;2.00;1.20;;;;;;;;;;4954101;28;20082;-70
2022/05/02 15:59:45;;;;;;;1.15;0.80;;;;;;;;;;4954115;28;20389;-70